sensor_id;sensor_type;location;lat;lon;timestamp;P1;durP1;ratioP1;P2;durP2;ratioP2
11731;SDS011;5922;53.734;10.258;2022-10-31T00:01:09;31.33;;;21.23;;
11731;SDS011;5922;53.734;10.258;2022-10-31T00:03:36;27.03;;;19.83;;
11731;SDS011;5922;53.734;10.258;2022-10-31T00:06:04;29.50;;;20.60;;
11731;SDS011;5922;53.734;10.258;2022-10-31T00:08:33;29.43;;;20.93;;
11731;SDS011;5922;53.734;10.258;2022-10-31T00:11:00;30.10;;;20.83;;
11731;SDS011;5922;53.734;10.258;2022-10-31T00:13:27;26.93;;;20.07;;
11731;SDS011;5922;53.734;10.258;2022-10-31T00:15:54;30.77;;;20.33;;
11731;SDS011;5922;53.734;10.258;2022-10-31T00:18:21;25.83;;;18.63;;
11731;SDS011;5922;53.734;10.258;2022-10-31T00:20:49;27.67;;;19.47;;
11731;SDS011;5922;53.734;10.258;2022-10-31T00:23:16;28.37;;;19.47;;
11731;SDS011;5922;53.734;10.258;2022-10-31T00:25:45;27.93;;;20.03;;
11731;SDS011;5922;53.734;10.258;2022-10-31T00:28:12;27.60;;;20.33;;
11731;SDS011;5922;53.734;10.258;2022-10-31T00:30:48;22.33;;;17.97;;
11731;SDS011;5922;53.734;10.258;2022-10-31T00:33:18;22.90;;;17.47;;
11731;SDS011;5922;53.734;10.258;2022-10-31T00:35:48;21.17;;;17.40;;
11731;SDS011;5922;53.734;10.258;2022-10-31T00:38:16;22.47;;;16.57;;
11731;SDS011;5922;53.734;10.258;2022-10-31T00:40:48;24.47;;;16.53;;
11731;SDS011;5922;53.734;10.258;2022-10-31T00:43:18;30.43;;;17.93;;
11731;SDS011;5922;53.734;10.258;2022-10-31T00:45:46;24.93;;;16.73;;
11731;SDS011;5922;53.734;10.258;2022-10-31T00:48:13;20.27;;;16.10;;
11731;SDS011;5922;53.734;10.258;2022-10-31T00:50:40;20.73;;;16.40;;
11731;SDS011;5922;53.734;10.258;2022-10-31T00:53:07;21.07;;;16.30;;
11731;SDS011;5922;53.734;10.258;2022-10-31T00:55:35;22.20;;;15.83;;
11731;SDS011;5922;53.734;10.258;2022-10-31T00:58:03;24.63;;;14.63;;
11731;SDS011;5922;53.734;10.258;2022-10-31T01:00:30;20.63;;;14.80;;
11731;SDS011;5922;53.734;10.258;2022-10-31T01:02:58;24.47;;;13.70;;
11731;SDS011;5922;53.734;10.258;2022-10-31T01:05:25;23.43;;;13.87;;
11731;SDS011;5922;53.734;10.258;2022-10-31T01:07:52;21.97;;;14.87;;
11731;SDS011;5922;53.734;10.258;2022-10-31T01:10:19;22.33;;;14.83;;
11731;SDS011;5922;53.734;10.258;2022-10-31T01:12:47;24.27;;;14.70;;
11731;SDS011;5922;53.734;10.258;2022-10-31T01:15:17;23.23;;;15.30;;
11731;SDS011;5922;53.734;10.258;2022-10-31T01:17:44;17.23;;;14.23;;
11731;SDS011;5922;53.734;10.258;2022-10-31T01:20:12;19.27;;;13.50;;
11731;SDS011;5922;53.734;10.258;2022-10-31T01:22:39;21.33;;;14.50;;
11731;SDS011;5922;53.734;10.258;2022-10-31T01:25:08;19.63;;;14.13;;
11731;SDS011;5922;53.734;10.258;2022-10-31T01:27:35;23.53;;;14.67;;
11731;SDS011;5922;53.734;10.258;2022-10-31T01:30:03;22.17;;;16.20;;
11731;SDS011;5922;53.734;10.258;2022-10-31T01:32:32;24.73;;;16.50;;
11731;SDS011;5922;53.734;10.258;2022-10-31T01:34:59;25.57;;;17.33;;
11731;SDS011;5922;53.734;10.258;2022-10-31T01:37:26;21.80;;;17.10;;
11731;SDS011;5922;53.734;10.258;2022-10-31T01:39:53;24.97;;;16.40;;
11731;SDS011;5922;53.734;10.258;2022-10-31T01:42:21;22.70;;;16.53;;
11731;SDS011;5922;53.734;10.258;2022-10-31T01:44:53;23.20;;;15.80;;
11731;SDS011;5922;53.734;10.258;2022-10-31T01:47:24;20.40;;;14.70;;
11731;SDS011;5922;53.734;10.258;2022-10-31T01:49:56;21.87;;;16.17;;
11731;SDS011;5922;53.734;10.258;2022-10-31T01:52:24;21.03;;;15.60;;
11731;SDS011;5922;53.734;10.258;2022-10-31T01:54:53;21.93;;;15.77;;
11731;SDS011;5922;53.734;10.258;2022-10-31T01:57:21;24.03;;;16.60;;
11731;SDS011;5922;53.734;10.258;2022-10-31T01:59:49;22.30;;;15.20;;
11731;SDS011;5922;53.734;10.258;2022-10-31T02:02:18;24.23;;;15.43;;
11731;SDS011;5922;53.734;10.258;2022-10-31T02:04:45;22.13;;;16.37;;
11731;SDS011;5922;53.734;10.258;2022-10-31T02:07:16;23.93;;;16.40;;
11731;SDS011;5922;53.734;10.258;2022-10-31T02:09:46;22.93;;;16.60;;
11731;SDS011;5922;53.734;10.258;2022-10-31T02:12:14;29.90;;;17.47;;
11731;SDS011;5922;53.734;10.258;2022-10-31T02:14:42;28.30;;;18.27;;
11731;SDS011;5922;53.734;10.258;2022-10-31T02:17:09;25.67;;;16.80;;
11731;SDS011;5922;53.734;10.258;2022-10-31T02:19:39;27.57;;;18.13;;
11731;SDS011;5922;53.734;10.258;2022-10-31T02:22:09;27.03;;;17.70;;
11731;SDS011;5922;53.734;10.258;2022-10-31T02:24:42;26.50;;;16.50;;
11731;SDS011;5922;53.734;10.258;2022-10-31T02:27:16;32.87;;;17.97;;
11731;SDS011;5922;53.734;10.258;2022-10-31T02:32:39;30.50;;;18.13;;
11731;SDS011;5922;53.734;10.258;2022-10-31T02:35:10;29.90;;;17.80;;
11731;SDS011;5922;53.734;10.258;2022-10-31T02:37:40;28.43;;;18.80;;
11731;SDS011;5922;53.734;10.258;2022-10-31T02:40:11;28.63;;;18.67;;
11731;SDS011;5922;53.734;10.258;2022-10-31T02:42:43;29.10;;;19.27;;
11731;SDS011;5922;53.734;10.258;2022-10-31T02:45:14;23.87;;;18.47;;
11731;SDS011;5922;53.734;10.258;2022-10-31T02:47:44;27.17;;;19.00;;
11731;SDS011;5922;53.734;10.258;2022-10-31T02:50:12;27.93;;;18.97;;
11731;SDS011;5922;53.734;10.258;2022-10-31T02:52:40;27.27;;;18.67;;
11731;SDS011;5922;53.734;10.258;2022-10-31T02:55:09;30.87;;;19.53;;
11731;SDS011;5922;53.734;10.258;2022-10-31T02:57:36;28.73;;;18.40;;
11731;SDS011;5922;53.734;10.258;2022-10-31T03:00:05;32.80;;;19.37;;
11731;SDS011;5922;53.734;10.258;2022-10-31T03:02:52;31.30;;;20.27;;
11731;SDS011;5922;53.734;10.258;2022-10-31T03:05:27;28.50;;;19.37;;
11731;SDS011;5922;53.734;10.258;2022-10-31T03:08:00;36.20;;;20.53;;
11731;SDS011;5922;53.734;10.258;2022-10-31T03:10:31;34.07;;;20.70;;
11731;SDS011;5922;53.734;10.258;2022-10-31T03:13:04;36.43;;;20.07;;
11731;SDS011;5922;53.734;10.258;2022-10-31T03:15:33;32.10;;;20.07;;
11731;SDS011;5922;53.734;10.258;2022-10-31T03:18:03;44.70;;;20.90;;
11731;SDS011;5922;53.734;10.258;2022-10-31T03:20:33;33.83;;;21.03;;
11731;SDS011;5922;53.734;10.258;2022-10-31T03:23:01;37.10;;;22.60;;
11731;SDS011;5922;53.734;10.258;2022-10-31T03:25:30;35.43;;;22.10;;
11731;SDS011;5922;53.734;10.258;2022-10-31T03:27:58;34.53;;;20.77;;
11731;SDS011;5922;53.734;10.258;2022-10-31T03:30:26;32.00;;;20.97;;
11731;SDS011;5922;53.734;10.258;2022-10-31T03:32:54;45.67;;;21.60;;
11731;SDS011;5922;53.734;10.258;2022-10-31T03:35:24;34.80;;;20.87;;
11731;SDS011;5922;53.734;10.258;2022-10-31T03:37:52;34.30;;;21.10;;
11731;SDS011;5922;53.734;10.258;2022-10-31T03:40:21;43.90;;;22.13;;
11731;SDS011;5922;53.734;10.258;2022-10-31T03:42:51;51.27;;;21.23;;
11731;SDS011;5922;53.734;10.258;2022-10-31T03:45:20;34.73;;;21.27;;
11731;SDS011;5922;53.734;10.258;2022-10-31T03:47:48;31.73;;;20.97;;
11731;SDS011;5922;53.734;10.258;2022-10-31T03:50:16;34.77;;;21.37;;
11731;SDS011;5922;53.734;10.258;2022-10-31T03:52:45;37.83;;;21.80;;
11731;SDS011;5922;53.734;10.258;2022-10-31T03:55:16;34.77;;;21.97;;
11731;SDS011;5922;53.734;10.258;2022-10-31T03:57:45;36.60;;;20.47;;
11731;SDS011;5922;53.734;10.258;2022-10-31T04:00:15;30.50;;;21.20;;
11731;SDS011;5922;53.734;10.258;2022-10-31T04:02:43;34.97;;;20.77;;
11731;SDS011;5922;53.734;10.258;2022-10-31T04:05:12;39.53;;;20.77;;
11731;SDS011;5922;53.734;10.258;2022-10-31T04:07:41;37.77;;;21.77;;
11731;SDS011;5922;53.734;10.258;2022-10-31T04:10:11;33.40;;;22.60;;
11731;SDS011;5922;53.734;10.258;2022-10-31T04:12:40;31.83;;;20.90;;
11731;SDS011;5922;53.734;10.258;2022-10-31T04:15:09;28.63;;;21.13;;
11731;SDS011;5922;53.734;10.258;2022-10-31T04:17:37;30.37;;;20.30;;
11731;SDS011;5922;53.734;10.258;2022-10-31T04:20:06;34.13;;;22.63;;
11731;SDS011;5922;53.734;10.258;2022-10-31T04:22:33;33.60;;;21.77;;
11731;SDS011;5922;53.734;10.258;2022-10-31T04:25:00;32.57;;;21.87;;
11731;SDS011;5922;53.734;10.258;2022-10-31T04:27:29;34.17;;;21.80;;
11731;SDS011;5922;53.734;10.258;2022-10-31T04:29:56;31.63;;;21.87;;
11731;SDS011;5922;53.734;10.258;2022-10-31T04:32:24;44.40;;;22.73;;
11731;SDS011;5922;53.734;10.258;2022-10-31T04:34:51;38.73;;;21.43;;
11731;SDS011;5922;53.734;10.258;2022-10-31T04:37:18;36.27;;;20.63;;
11731;SDS011;5922;53.734;10.258;2022-10-31T04:39:46;34.20;;;20.47;;
11731;SDS011;5922;53.734;10.258;2022-10-31T04:42:13;36.30;;;21.67;;
11731;SDS011;5922;53.734;10.258;2022-10-31T04:44:41;34.73;;;20.83;;
11731;SDS011;5922;53.734;10.258;2022-10-31T04:47:09;49.63;;;20.70;;
11731;SDS011;5922;53.734;10.258;2022-10-31T04:49:36;36.83;;;20.73;;
11731;SDS011;5922;53.734;10.258;2022-10-31T04:52:03;35.97;;;20.63;;
11731;SDS011;5922;53.734;10.258;2022-10-31T04:54:32;38.53;;;20.97;;
11731;SDS011;5922;53.734;10.258;2022-10-31T04:56:59;36.13;;;20.60;;
11731;SDS011;5922;53.734;10.258;2022-10-31T04:59:26;36.97;;;20.50;;
11731;SDS011;5922;53.734;10.258;2022-10-31T05:01:55;36.80;;;20.23;;
11731;SDS011;5922;53.734;10.258;2022-10-31T05:04:22;36.93;;;21.33;;
11731;SDS011;5922;53.734;10.258;2022-10-31T05:06:49;43.50;;;22.00;;
11731;SDS011;5922;53.734;10.258;2022-10-31T05:09:17;34.17;;;21.43;;
11731;SDS011;5922;53.734;10.258;2022-10-31T05:11:44;34.67;;;21.50;;
11731;SDS011;5922;53.734;10.258;2022-10-31T05:14:11;34.07;;;22.37;;
11731;SDS011;5922;53.734;10.258;2022-10-31T05:16:39;35.13;;;21.50;;
11731;SDS011;5922;53.734;10.258;2022-10-31T05:19:07;31.83;;;21.27;;
11731;SDS011;5922;53.734;10.258;2022-10-31T05:21:34;37.03;;;22.00;;
11731;SDS011;5922;53.734;10.258;2022-10-31T05:24:02;29.13;;;20.90;;
11731;SDS011;5922;53.734;10.258;2022-10-31T05:26:29;38.73;;;20.77;;
11731;SDS011;5922;53.734;10.258;2022-10-31T05:28:56;32.90;;;20.50;;
11731;SDS011;5922;53.734;10.258;2022-10-31T05:31:23;31.77;;;20.97;;
11731;SDS011;5922;53.734;10.258;2022-10-31T05:33:51;38.70;;;20.70;;
11731;SDS011;5922;53.734;10.258;2022-10-31T05:36:19;38.37;;;21.80;;
11731;SDS011;5922;53.734;10.258;2022-10-31T05:38:47;36.53;;;21.77;;
11731;SDS011;5922;53.734;10.258;2022-10-31T05:41:14;29.93;;;21.73;;
11731;SDS011;5922;53.734;10.258;2022-10-31T05:43:41;32.33;;;21.27;;
11731;SDS011;5922;53.734;10.258;2022-10-31T05:46:08;31.03;;;21.53;;
11731;SDS011;5922;53.734;10.258;2022-10-31T05:48:35;37.13;;;21.50;;
11731;SDS011;5922;53.734;10.258;2022-10-31T05:51:03;30.23;;;21.80;;
11731;SDS011;5922;53.734;10.258;2022-10-31T05:53:31;38.80;;;22.27;;
11731;SDS011;5922;53.734;10.258;2022-10-31T05:55:59;30.83;;;22.10;;
11731;SDS011;5922;53.734;10.258;2022-10-31T05:58:26;37.07;;;21.20;;
11731;SDS011;5922;53.734;10.258;2022-10-31T06:00:53;35.33;;;21.77;;
11731;SDS011;5922;53.734;10.258;2022-10-31T06:03:20;36.87;;;22.63;;
11731;SDS011;5922;53.734;10.258;2022-10-31T06:05:47;38.53;;;21.30;;
11731;SDS011;5922;53.734;10.258;2022-10-31T06:08:15;44.57;;;21.30;;
11731;SDS011;5922;53.734;10.258;2022-10-31T06:10:43;34.83;;;22.03;;
11731;SDS011;5922;53.734;10.258;2022-10-31T06:13:10;34.00;;;20.87;;
11731;SDS011;5922;53.734;10.258;2022-10-31T06:15:38;33.30;;;21.50;;
11731;SDS011;5922;53.734;10.258;2022-10-31T06:18:05;35.03;;;22.40;;
11731;SDS011;5922;53.734;10.258;2022-10-31T06:20:33;36.43;;;21.43;;
11731;SDS011;5922;53.734;10.258;2022-10-31T06:23:00;31.83;;;20.57;;
11731;SDS011;5922;53.734;10.258;2022-10-31T06:25:27;38.17;;;21.33;;
11731;SDS011;5922;53.734;10.258;2022-10-31T06:27:56;33.40;;;21.73;;
11731;SDS011;5922;53.734;10.258;2022-10-31T06:30:24;44.90;;;21.77;;
11731;SDS011;5922;53.734;10.258;2022-10-31T06:32:51;30.87;;;20.90;;
11731;SDS011;5922;53.734;10.258;2022-10-31T06:35:18;31.83;;;21.97;;
11731;SDS011;5922;53.734;10.258;2022-10-31T06:37:50;40.40;;;21.70;;
11731;SDS011;5922;53.734;10.258;2022-10-31T06:40:17;33.20;;;22.23;;
11731;SDS011;5922;53.734;10.258;2022-10-31T06:42:44;31.03;;;20.00;;
11731;SDS011;5922;53.734;10.258;2022-10-31T06:45:13;35.00;;;20.67;;
11731;SDS011;5922;53.734;10.258;2022-10-31T06:47:40;37.20;;;21.60;;
11731;SDS011;5922;53.734;10.258;2022-10-31T06:50:08;34.00;;;21.17;;
11731;SDS011;5922;53.734;10.258;2022-10-31T06:52:35;31.03;;;21.33;;
11731;SDS011;5922;53.734;10.258;2022-10-31T06:55:02;33.23;;;21.23;;
11731;SDS011;5922;53.734;10.258;2022-10-31T06:57:30;33.27;;;21.97;;
11731;SDS011;5922;53.734;10.258;2022-10-31T06:59:57;35.13;;;22.33;;
11731;SDS011;5922;53.734;10.258;2022-10-31T07:02:25;28.20;;;20.57;;
11731;SDS011;5922;53.734;10.258;2022-10-31T07:04:52;35.57;;;20.33;;
11731;SDS011;5922;53.734;10.258;2022-10-31T07:07:20;31.43;;;20.97;;
11731;SDS011;5922;53.734;10.258;2022-10-31T07:09:47;26.73;;;18.70;;
11731;SDS011;5922;53.734;10.258;2022-10-31T07:12:15;33.20;;;20.40;;
11731;SDS011;5922;53.734;10.258;2022-10-31T07:14:42;33.47;;;19.60;;
11731;SDS011;5922;53.734;10.258;2022-10-31T07:17:10;28.53;;;19.60;;
11731;SDS011;5922;53.734;10.258;2022-10-31T07:19:38;29.57;;;17.87;;
11731;SDS011;5922;53.734;10.258;2022-10-31T07:22:06;29.23;;;19.37;;
11731;SDS011;5922;53.734;10.258;2022-10-31T07:24:33;31.70;;;19.13;;
11731;SDS011;5922;53.734;10.258;2022-10-31T07:27:00;27.93;;;18.77;;
11731;SDS011;5922;53.734;10.258;2022-10-31T07:29:27;30.60;;;19.10;;
11731;SDS011;5922;53.734;10.258;2022-10-31T07:31:54;28.33;;;18.43;;
11731;SDS011;5922;53.734;10.258;2022-10-31T07:34:22;29.27;;;19.37;;
11731;SDS011;5922;53.734;10.258;2022-10-31T07:36:51;26.77;;;17.07;;
11731;SDS011;5922;53.734;10.258;2022-10-31T07:39:19;24.53;;;17.40;;
11731;SDS011;5922;53.734;10.258;2022-10-31T07:41:46;25.80;;;17.57;;
11731;SDS011;5922;53.734;10.258;2022-10-31T07:44:13;24.83;;;17.27;;
11731;SDS011;5922;53.734;10.258;2022-10-31T07:46:40;20.80;;;15.20;;
11731;SDS011;5922;53.734;10.258;2022-10-31T07:49:08;20.50;;;14.13;;
11731;SDS011;5922;53.734;10.258;2022-10-31T07:51:35;20.53;;;13.77;;
11731;SDS011;5922;53.734;10.258;2022-10-31T07:54:03;19.00;;;13.57;;
11731;SDS011;5922;53.734;10.258;2022-10-31T07:56:31;17.17;;;12.20;;
11731;SDS011;5922;53.734;10.258;2022-10-31T07:58:58;21.23;;;13.23;;
11731;SDS011;5922;53.734;10.258;2022-10-31T08:01:25;23.33;;;13.30;;
11731;SDS011;5922;53.734;10.258;2022-10-31T08:03:52;18.73;;;13.73;;
11731;SDS011;5922;53.734;10.258;2022-10-31T08:06:20;17.80;;;12.50;;
11731;SDS011;5922;53.734;10.258;2022-10-31T08:08:47;17.73;;;12.17;;
11731;SDS011;5922;53.734;10.258;2022-10-31T08:11:16;17.77;;;12.60;;
11731;SDS011;5922;53.734;10.258;2022-10-31T08:13:43;19.37;;;12.40;;
11731;SDS011;5922;53.734;10.258;2022-10-31T08:16:10;19.67;;;12.93;;
11731;SDS011;5922;53.734;10.258;2022-10-31T08:18:37;17.33;;;12.57;;
11731;SDS011;5922;53.734;10.258;2022-10-31T08:21:04;18.90;;;13.03;;
11731;SDS011;5922;53.734;10.258;2022-10-31T08:23:32;17.53;;;12.27;;
11731;SDS011;5922;53.734;10.258;2022-10-31T08:25:59;16.83;;;12.10;;
11731;SDS011;5922;53.734;10.258;2022-10-31T08:28:28;16.77;;;11.73;;
11731;SDS011;5922;53.734;10.258;2022-10-31T08:30:56;20.30;;;12.77;;
11731;SDS011;5922;53.734;10.258;2022-10-31T08:33:24;19.03;;;12.70;;
11731;SDS011;5922;53.734;10.258;2022-10-31T08:35:51;18.50;;;11.80;;
11731;SDS011;5922;53.734;10.258;2022-10-31T08:38:18;22.77;;;12.83;;
11731;SDS011;5922;53.734;10.258;2022-10-31T08:40:47;17.60;;;12.20;;
11731;SDS011;5922;53.734;10.258;2022-10-31T08:43:16;18.23;;;12.23;;
11731;SDS011;5922;53.734;10.258;2022-10-31T08:45:47;17.53;;;12.37;;
11731;SDS011;5922;53.734;10.258;2022-10-31T08:48:15;17.00;;;12.20;;
11731;SDS011;5922;53.734;10.258;2022-10-31T08:50:55;20.03;;;12.37;;
11731;SDS011;5922;53.734;10.258;2022-10-31T08:53:23;18.63;;;12.40;;
11731;SDS011;5922;53.734;10.258;2022-10-31T08:55:50;15.83;;;12.20;;
11731;SDS011;5922;53.734;10.258;2022-10-31T08:58:18;17.67;;;12.70;;
11731;SDS011;5922;53.734;10.258;2022-10-31T09:00:46;16.87;;;12.30;;
11731;SDS011;5922;53.734;10.258;2022-10-31T09:03:23;16.10;;;11.83;;
11731;SDS011;5922;53.734;10.258;2022-10-31T09:05:50;19.90;;;12.33;;
11731;SDS011;5922;53.734;10.258;2022-10-31T09:08:22;18.30;;;12.27;;
11731;SDS011;5922;53.734;10.258;2022-10-31T09:10:50;16.60;;;12.23;;
11731;SDS011;5922;53.734;10.258;2022-10-31T09:13:18;18.13;;;11.87;;
11731;SDS011;5922;53.734;10.258;2022-10-31T09:15:45;17.67;;;12.47;;
11731;SDS011;5922;53.734;10.258;2022-10-31T09:18:13;16.50;;;11.83;;
11731;SDS011;5922;53.734;10.258;2022-10-31T09:20:41;16.73;;;12.43;;
11731;SDS011;5922;53.734;10.258;2022-10-31T09:23:09;17.80;;;13.03;;
11731;SDS011;5922;53.734;10.258;2022-10-31T09:25:38;20.27;;;13.20;;
11731;SDS011;5922;53.734;10.258;2022-10-31T09:28:07;20.30;;;13.53;;
11731;SDS011;5922;53.734;10.258;2022-10-31T09:30:35;16.57;;;11.53;;
11731;SDS011;5922;53.734;10.258;2022-10-31T09:33:03;17.40;;;11.87;;
11731;SDS011;5922;53.734;10.258;2022-10-31T09:35:31;18.17;;;11.13;;
11731;SDS011;5922;53.734;10.258;2022-10-31T09:37:59;14.60;;;10.17;;
11731;SDS011;5922;53.734;10.258;2022-10-31T09:40:31;17.17;;;11.17;;
11731;SDS011;5922;53.734;10.258;2022-10-31T09:43:02;17.33;;;12.10;;
11731;SDS011;5922;53.734;10.258;2022-10-31T09:45:31;17.50;;;11.47;;
11731;SDS011;5922;53.734;10.258;2022-10-31T09:48:09;15.93;;;11.03;;
11731;SDS011;5922;53.734;10.258;2022-10-31T09:50:41;14.57;;;9.63;;
11731;SDS011;5922;53.734;10.258;2022-10-31T09:53:12;14.53;;;10.37;;
11731;SDS011;5922;53.734;10.258;2022-10-31T09:55:41;15.33;;;10.17;;
11731;SDS011;5922;53.734;10.258;2022-10-31T09:58:12;19.93;;;12.07;;
11731;SDS011;5922;53.734;10.258;2022-10-31T10:00:40;14.97;;;10.13;;
11731;SDS011;5922;53.734;10.258;2022-10-31T10:03:10;13.63;;;9.53;;
11731;SDS011;5922;53.734;10.258;2022-10-31T10:05:43;17.23;;;10.90;;
11731;SDS011;5922;53.734;10.258;2022-10-31T10:08:11;13.97;;;10.27;;
11731;SDS011;5922;53.734;10.258;2022-10-31T10:10:44;17.00;;;11.07;;
11731;SDS011;5922;53.734;10.258;2022-10-31T10:13:20;15.83;;;11.07;;
11731;SDS011;5922;53.734;10.258;2022-10-31T10:15:55;16.37;;;10.87;;
11731;SDS011;5922;53.734;10.258;2022-10-31T10:18:27;15.73;;;10.43;;
11731;SDS011;5922;53.734;10.258;2022-10-31T10:21:03;16.90;;;10.77;;
11731;SDS011;5922;53.734;10.258;2022-10-31T10:26:06;18.43;;;10.87;;
11731;SDS011;5922;53.734;10.258;2022-10-31T10:28:39;16.30;;;10.90;;
11731;SDS011;5922;53.734;10.258;2022-10-31T10:31:09;16.70;;;11.20;;
11731;SDS011;5922;53.734;10.258;2022-10-31T10:33:39;16.90;;;10.90;;
11731;SDS011;5922;53.734;10.258;2022-10-31T10:36:08;17.43;;;11.50;;
11731;SDS011;5922;53.734;10.258;2022-10-31T10:38:38;12.43;;;9.30;;
11731;SDS011;5922;53.734;10.258;2022-10-31T10:41:09;12.50;;;8.83;;
11731;SDS011;5922;53.734;10.258;2022-10-31T10:43:40;11.67;;;8.83;;
11731;SDS011;5922;53.734;10.258;2022-10-31T10:49:13;12.57;;;8.57;;
11731;SDS011;5922;53.734;10.258;2022-10-31T10:51:43;12.10;;;8.67;;
11731;SDS011;5922;53.734;10.258;2022-10-31T10:54:33;12.73;;;9.43;;
11731;SDS011;5922;53.734;10.258;2022-10-31T10:57:07;14.50;;;10.13;;
11731;SDS011;5922;53.734;10.258;2022-10-31T10:59:39;12.83;;;9.67;;
11731;SDS011;5922;53.734;10.258;2022-10-31T11:02:13;14.60;;;10.40;;
11731;SDS011;5922;53.734;10.258;2022-10-31T11:04:42;17.17;;;10.60;;
11731;SDS011;5922;53.734;10.258;2022-10-31T11:07:10;15.37;;;10.90;;
11731;SDS011;5922;53.734;10.258;2022-10-31T11:09:38;15.63;;;10.20;;
11731;SDS011;5922;53.734;10.258;2022-10-31T11:12:07;13.77;;;10.37;;
11731;SDS011;5922;53.734;10.258;2022-10-31T11:14:35;13.93;;;9.50;;
11731;SDS011;5922;53.734;10.258;2022-10-31T11:17:09;12.27;;;9.83;;
11731;SDS011;5922;53.734;10.258;2022-10-31T11:19:37;12.87;;;9.40;;
11731;SDS011;5922;53.734;10.258;2022-10-31T11:22:07;12.70;;;9.30;;
11731;SDS011;5922;53.734;10.258;2022-10-31T11:24:39;13.87;;;9.70;;
11731;SDS011;5922;53.734;10.258;2022-10-31T11:27:12;13.17;;;9.27;;
11731;SDS011;5922;53.734;10.258;2022-10-31T11:29:40;12.97;;;9.70;;
11731;SDS011;5922;53.734;10.258;2022-10-31T11:32:14;12.53;;;9.13;;
11731;SDS011;5922;53.734;10.258;2022-10-31T11:34:43;13.13;;;9.10;;
11731;SDS011;5922;53.734;10.258;2022-10-31T11:37:12;13.53;;;8.70;;
11731;SDS011;5922;53.734;10.258;2022-10-31T11:39:41;12.60;;;9.37;;
11731;SDS011;5922;53.734;10.258;2022-10-31T11:42:09;11.70;;;8.50;;
11731;SDS011;5922;53.734;10.258;2022-10-31T11:44:36;11.73;;;9.10;;
11731;SDS011;5922;53.734;10.258;2022-10-31T11:47:12;15.33;;;10.50;;
11731;SDS011;5922;53.734;10.258;2022-10-31T11:49:41;13.80;;;10.10;;
11731;SDS011;5922;53.734;10.258;2022-10-31T11:52:13;13.27;;;9.70;;
11731;SDS011;5922;53.734;10.258;2022-10-31T11:54:44;12.80;;;9.73;;
11731;SDS011;5922;53.734;10.258;2022-10-31T11:57:21;14.47;;;10.03;;
11731;SDS011;5922;53.734;10.258;2022-10-31T11:59:50;13.63;;;10.47;;
11731;SDS011;5922;53.734;10.258;2022-10-31T12:02:19;13.93;;;10.00;;
11731;SDS011;5922;53.734;10.258;2022-10-31T12:04:48;15.37;;;10.00;;
11731;SDS011;5922;53.734;10.258;2022-10-31T12:07:17;14.67;;;10.87;;
11731;SDS011;5922;53.734;10.258;2022-10-31T12:09:44;14.00;;;9.53;;
11731;SDS011;5922;53.734;10.258;2022-10-31T12:12:17;13.00;;;8.73;;
11731;SDS011;5922;53.734;10.258;2022-10-31T12:14:49;13.30;;;8.57;;
11731;SDS011;5922;53.734;10.258;2022-10-31T12:17:21;13.17;;;8.23;;
11731;SDS011;5922;53.734;10.258;2022-10-31T12:19:52;10.40;;;7.93;;
11731;SDS011;5922;53.734;10.258;2022-10-31T12:22:26;12.83;;;8.10;;
11731;SDS011;5922;53.734;10.258;2022-10-31T12:27:48;13.13;;;9.07;;
11731;SDS011;5922;53.734;10.258;2022-10-31T12:30:19;11.77;;;8.37;;
11731;SDS011;5922;53.734;10.258;2022-10-31T12:33:06;13.80;;;9.43;;
11731;SDS011;5922;53.734;10.258;2022-10-31T12:35:40;12.63;;;9.27;;
11731;SDS011;5922;53.734;10.258;2022-10-31T12:38:15;10.60;;;7.83;;
11731;SDS011;5922;53.734;10.258;2022-10-31T12:40:49;12.30;;;8.63;;
11731;SDS011;5922;53.734;10.258;2022-10-31T12:43:23;12.97;;;9.00;;
11731;SDS011;5922;53.734;10.258;2022-10-31T12:45:53;11.60;;;8.90;;
11731;SDS011;5922;53.734;10.258;2022-10-31T12:48:49;9.23;;;7.53;;
11731;SDS011;5922;53.734;10.258;2022-10-31T12:51:20;11.50;;;8.10;;
11731;SDS011;5922;53.734;10.258;2022-10-31T12:53:55;9.20;;;6.97;;
11731;SDS011;5922;53.734;10.258;2022-10-31T12:56:28;13.80;;;7.90;;
11731;SDS011;5922;53.734;10.258;2022-10-31T12:58:59;10.73;;;7.47;;
11731;SDS011;5922;53.734;10.258;2022-10-31T13:01:27;13.67;;;8.40;;
11731;SDS011;5922;53.734;10.258;2022-10-31T13:03:58;11.10;;;8.33;;
11731;SDS011;5922;53.734;10.258;2022-10-31T13:06:30;11.97;;;8.00;;
11731;SDS011;5922;53.734;10.258;2022-10-31T13:08:59;10.37;;;8.07;;
11731;SDS011;5922;53.734;10.258;2022-10-31T13:11:29;12.03;;;8.10;;
11731;SDS011;5922;53.734;10.258;2022-10-31T13:13:59;11.03;;;7.73;;
11731;SDS011;5922;53.734;10.258;2022-10-31T13:16:29;12.77;;;7.97;;
11731;SDS011;5922;53.734;10.258;2022-10-31T13:19:00;10.60;;;8.10;;
11731;SDS011;5922;53.734;10.258;2022-10-31T13:21:30;13.87;;;9.40;;
11731;SDS011;5922;53.734;10.258;2022-10-31T13:24:00;13.40;;;8.53;;
11731;SDS011;5922;53.734;10.258;2022-10-31T13:26:32;12.03;;;9.30;;
11731;SDS011;5922;53.734;10.258;2022-10-31T13:29:01;12.63;;;8.50;;
11731;SDS011;5922;53.734;10.258;2022-10-31T13:31:29;10.93;;;8.20;;
11731;SDS011;5922;53.734;10.258;2022-10-31T13:33:59;9.13;;;7.90;;
11731;SDS011;5922;53.734;10.258;2022-10-31T13:36:29;12.03;;;8.07;;
11731;SDS011;5922;53.734;10.258;2022-10-31T13:39:13;14.50;;;8.67;;
11731;SDS011;5922;53.734;10.258;2022-10-31T13:41:44;12.07;;;9.10;;
11731;SDS011;5922;53.734;10.258;2022-10-31T13:44:14;11.43;;;8.87;;
11731;SDS011;5922;53.734;10.258;2022-10-31T13:46:45;11.23;;;8.43;;
11731;SDS011;5922;53.734;10.258;2022-10-31T13:49:24;11.20;;;7.97;;
11731;SDS011;5922;53.734;10.258;2022-10-31T13:51:52;11.73;;;8.03;;
11731;SDS011;5922;53.734;10.258;2022-10-31T13:54:22;11.80;;;8.50;;
11731;SDS011;5922;53.734;10.258;2022-10-31T13:56:51;11.20;;;8.40;;
11731;SDS011;5922;53.734;10.258;2022-10-31T13:59:28;14.60;;;8.67;;
11731;SDS011;5922;53.734;10.258;2022-10-31T14:01:58;12.70;;;8.17;;
11731;SDS011;5922;53.734;10.258;2022-10-31T14:04:28;10.27;;;7.63;;
11731;SDS011;5922;53.734;10.258;2022-10-31T14:07:04;11.53;;;8.40;;
11731;SDS011;5922;53.734;10.258;2022-10-31T14:09:52;14.73;;;8.77;;
11731;SDS011;5922;53.734;10.258;2022-10-31T14:12:25;13.90;;;8.47;;
11731;SDS011;5922;53.734;10.258;2022-10-31T14:14:58;12.87;;;8.60;;
11731;SDS011;5922;53.734;10.258;2022-10-31T14:17:27;11.77;;;8.50;;
11731;SDS011;5922;53.734;10.258;2022-10-31T14:22:48;11.43;;;7.63;;
11731;SDS011;5922;53.734;10.258;2022-10-31T14:25:28;12.03;;;8.40;;
11731;SDS011;5922;53.734;10.258;2022-10-31T14:27:59;12.87;;;8.00;;
11731;SDS011;5922;53.734;10.258;2022-10-31T14:30:29;11.07;;;7.90;;
11731;SDS011;5922;53.734;10.258;2022-10-31T14:33:00;11.87;;;8.30;;
11731;SDS011;5922;53.734;10.258;2022-10-31T14:35:45;13.23;;;8.10;;
11731;SDS011;5922;53.734;10.258;2022-10-31T14:38:24;9.80;;;7.73;;
11731;SDS011;5922;53.734;10.258;2022-10-31T14:41:01;11.10;;;7.70;;
11731;SDS011;5922;53.734;10.258;2022-10-31T14:43:39;11.63;;;7.70;;
11731;SDS011;5922;53.734;10.258;2022-10-31T14:46:14;11.73;;;7.87;;
11731;SDS011;5922;53.734;10.258;2022-10-31T14:48:48;12.17;;;8.40;;
11731;SDS011;5922;53.734;10.258;2022-10-31T14:51:20;11.53;;;8.10;;
11731;SDS011;5922;53.734;10.258;2022-10-31T14:53:48;15.23;;;8.27;;